Time;durP1;ratioP1;P1;durP2;ratioP2;P2;SDS_P1;SDS_P2;PMS_P1;PMS_P2;Temp;Humidity;BMP_temperature;BMP_pressure;BME280_temperature;BME280_humidity;BME280_pressure;Samples;Min_cycle;Max_cycle;Signal;HPM_P1;HPM_P2
2024/01/14 00:01:02;;;;;;;6.68;3.85;;;;;;;-0.34;100.00;97884.81;2537566;29;20048;-96
2024/01/14 00:02:19;;;;;;;5.35;3.33;;;;;;;0.05;100.00;97875.63;2525709;29;20048;-94
2024/01/14 00:03:37;;;;;;;8.15;3.33;;;;;;;0.18;100.00;97873.94;2547087;29;20031;-94
2024/01/14 00:04:53;;;;;;;8.88;4.25;;;;;;;0.12;100.00;97872.22;2533737;29;20040;-96
2024/01/14 00:06:09;;;;;;;5.80;3.45;;;;;;;-0.06;100.00;97873.00;2537146;29;20036;-95
2024/01/14 00:07:26;;;;;;;6.05;3.10;;;;;;;-0.02;100.00;97881.56;2529376;29;20044;-95
2024/01/14 00:08:46;;;;;;;9.10;5.93;;;;;;;-0.26;100.00;97865.16;2533685;29;20051;-95
2024/01/14 00:10:03;;;;;;;8.02;4.55;;;;;;;-0.17;100.00;97869.50;2533004;29;20040;-95
2024/01/14 00:11:20;;;;;;;16.25;4.40;;;;;;;-0.02;100.00;97868.72;2536818;29;20051;-95
2024/01/14 00:12:37;;;;;;;9.20;5.13;;;;;;;-0.05;100.00;97866.13;2525808;29;20144;-95
2024/01/14 00:13:53;;;;;;;5.60;3.40;;;;;;;0.03;100.00;97861.00;2519499;29;20474;-94
2024/01/14 00:15:10;;;;;;;8.15;3.92;;;;;;;0.22;100.00;97864.53;2517847;29;20037;-95
2024/01/14 00:16:34;;;;;;;5.25;3.60;;;;;;;0.07;100.00;97866.19;2530392;29;20044;-95
2024/01/14 00:17:50;;;;;;;6.82;3.97;;;;;;;-0.06;100.00;97856.69;2536415;29;20068;-95
2024/01/14 00:19:07;;;;;;;8.00;3.60;;;;;;;0.04;100.00;97855.88;2536059;29;20044;-95
2024/01/14 00:20:23;;;;;;;11.82;5.80;;;;;;;-0.17;100.00;97843.78;2526650;29;20045;-95
2024/01/14 00:21:39;;;;;;;5.50;3.42;;;;;;;0.11;100.00;97843.91;2529687;29;20044;-96
2024/01/14 00:22:57;;;;;;;6.60;3.15;;;;;;;0.40;100.00;97838.84;2528241;29;20114;-96
2024/01/14 00:24:15;;;;;;;9.90;4.43;;;;;;;0.21;100.00;97829.34;2533581;29;20726;-96
2024/01/14 00:25:31;;;;;;;6.50;3.67;;;;;;;-0.06;100.00;97830.94;2538052;29;20076;-96
2024/01/14 00:26:48;;;;;;;15.65;8.50;;;;;;;-0.36;100.00;97823.06;2541147;29;20060;-95
2024/01/14 00:28:04;;;;;;;6.68;3.60;;;;;;;-0.07;100.00;97824.09;2527391;29;20056;-96
2024/01/14 00:29:21;;;;;;;9.43;5.88;;;;;;;-0.20;100.00;97829.16;2522253;29;20040;-95
2024/01/14 00:30:38;;;;;;;10.00;6.32;;;;;;;-0.17;100.00;97829.19;2533490;29;20107;-95
2024/01/14 00:37:36;;;;;;;15.45;8.73;;;;;;;-0.46;100.00;97827.31;2554531;29;20055;-95
2024/01/14 00:38:57;;;;;;;10.63;4.80;;;;;;;-0.17;100.00;97826.59;2554165;29;20035;-95
2024/01/14 00:40:16;;;;;;;11.35;6.07;;;;;;;-0.21;100.00;97826.56;2542193;29;20044;-95
2024/01/14 00:41:33;;;;;;;9.50;6.22;;;;;;;-0.31;100.00;97823.09;2539390;29;20608;-96
2024/01/14 00:42:55;;;;;;;10.45;6.65;;;;;;;-0.19;100.00;97841.19;2537167;29;20044;-96
2024/01/14 00:44:11;;;;;;;4.40;3.03;;;;;;;-0.18;100.00;97837.75;2548433;29;20095;-95
2024/01/14 00:45:28;;;;;;;9.88;6.50;;;;;;;-0.21;100.00;97826.56;2554883;29;20051;-96
2024/01/14 00:46:47;;;;;;;8.88;5.43;;;;;;;-0.27;100.00;97823.97;2545338;29;20052;-96
2024/01/14 00:48:06;;;;;;;7.95;4.72;;;;;;;-0.15;100.00;97816.34;2541591;29;20032;-96
2024/01/14 00:49:25;;;;;;;6.45;3.97;;;;;;;-0.06;100.00;97830.94;2539064;29;20044;-96
2024/01/14 00:50:42;;;;;;;12.05;7.30;;;;;;;-0.26;100.00;97823.13;2527232;29;20108;-96
2024/01/14 00:51:58;;;;;;;11.18;7.80;;;;;;;-0.34;100.00;97829.09;2519844;29;20089;-95
2024/01/14 00:53:14;;;;;;;8.02;4.90;;;;;;;-0.28;100.00;97823.13;2526758;29;20428;-96
2024/01/14 00:54:30;;;;;;;12.73;6.82;;;;;;;-0.24;100.00;97811.13;2531870;29;20088;-95
2024/01/14 00:55:49;;;;;;;12.00;6.47;;;;;;;-0.29;100.00;97808.53;2535255;29;20072;-96
2024/01/14 00:57:07;;;;;;;17.83;7.32;;;;;;;-0.39;100.00;97806.78;2537625;29;20048;-96
2024/01/14 00:58:23;;;;;;;8.60;4.82;;;;;;;-0.21;100.00;97814.59;2537026;29;20084;-94
2024/01/14 00:59:40;;;;;;;12.00;6.85;;;;;;;-0.18;100.00;97809.44;2533824;29;20137;-95
2024/01/14 01:00:56;;;;;;;8.40;4.82;;;;;;;-0.12;100.00;97805.22;2521153;29;20144;-94
2024/01/14 01:02:12;;;;;;;9.27;4.97;;;;;;;-0.18;100.00;97806.03;2532118;29;20044;-95
2024/01/14 01:03:34;;;;;;;13.88;8.65;;;;;;;-0.38;100.00;97804.19;2541484;29;20029;-96
2024/01/14 01:04:51;;;;;;;;;;;;;;;-0.22;100.00;97800.00;2535133;29;20048;-95
2024/01/14 01:06:07;;;;;;;11.20;6.20;;;;;;;-0.24;100.00;97803.41;2535049;29;20391;-96
2024/01/14 01:07:24;;;;;;;6.90;3.38;;;;;;;-0.02;100.00;97791.50;2527623;29;20073;-95
2024/01/14 01:08:40;;;;;;;8.15;5.00;;;;;;;-0.21;100.00;97788.88;2519101;29;20036;-95
2024/01/14 01:09:56;;;;;;;10.10;6.50;;;;;;;-0.29;100.00;97790.53;2528083;29;20095;-94
2024/01/14 01:11:16;;;;;;;9.25;5.38;;;;;;;-0.35;100.00;97777.66;2530619;29;20045;-96
2024/01/14 01:12:32;;;;;;;8.52;4.18;;;;;;;-0.16;100.00;97779.44;2536014;29;20036;-94
2024/01/14 01:13:49;;;;;;;4.82;2.28;;;;;;;-0.06;100.00;97779.47;2541448;29;20032;-94
2024/01/14 01:15:07;;;;;;;7.43;4.10;;;;;;;-0.11;100.00;97769.16;2536993;29;20105;-94
2024/01/14 01:16:23;;;;;;;9.48;4.47;;;;;;;-0.26;100.00;97767.41;2521297;29;20100;-94
2024/01/14 01:17:41;;;;;;;8.27;4.32;;;;;;;-0.08;100.00;97763.19;2517102;29;20044;-95
2024/01/14 01:18:57;;;;;;;10.27;6.32;;;;;;;-0.31;100.00;97756.22;2535685;29;20077;-94
2024/01/14 01:20:13;;;;;;;7.65;4.25;;;;;;;-0.11;100.00;97760.59;2538722;29;20080;-94
2024/01/14 01:21:30;;;;;;;7.97;4.45;;;;;;;-0.34;100.00;97761.34;2539032;29;20036;-94
2024/01/14 01:22:46;;;;;;;8.23;3.95;;;;;;;0.08;100.00;97758.97;2547873;29;20671;-95
2024/01/14 01:24:02;;;;;;;8.65;4.07;;;;;;;0.07;100.00;97759.78;2536515;29;20040;-94
2024/01/14 01:25:19;;;;;;;6.25;2.92;;;;;;;0.08;100.00;97746.09;2536424;29;20043;-96
2024/01/14 01:26:35;;;;;;;7.18;3.28;;;;;;;0.22;100.00;97748.69;2527060;29;20497;-96
2024/01/14 01:27:52;;;;;;;10.55;3.50;;;;;;;-0.04;100.00;97752.03;2532057;29;20145;-96
2024/01/14 01:29:08;;;;;;;4.80;3.17;;;;;;;-0.19;100.00;97750.28;2537381;29;20422;-96
2024/01/14 01:30:25;;;;;;;7.85;4.07;;;;;;;-0.19;100.00;97748.56;2538785;29;20439;-96
2024/01/14 01:31:42;;;;;;;7.05;3.60;;;;;;;0.30;100.00;97757.28;2533913;29;20456;-95
2024/01/14 01:32:59;;;;;;;6.65;3.28;;;;;;;0.23;100.00;97752.97;2535925;29;20048;-95
2024/01/14 01:34:18;;;;;;;4.38;3.08;;;;;;;0.06;100.00;97766.66;2530828;29;20116;-95
2024/01/14 01:35:36;;;;;;;4.35;2.67;;;;;;;-0.13;100.00;97765.75;2532122;29;20076;-96
2024/01/14 01:36:58;;;;;;;10.02;4.88;;;;;;;-0.19;100.00;97756.28;2525254;29;20053;-95
2024/01/14 01:38:16;;;;;;;8.70;4.43;;;;;;;-0.13;100.00;97746.88;2533919;29;20194;-95
2024/01/14 01:39:33;;;;;;;4.47;3.10;;;;;;;-0.24;100.00;97754.53;2536701;29;20036;-95
2024/01/14 01:40:49;;;;;;;8.35;5.75;;;;;;;-0.33;100.00;97742.50;2544331;29;20575;-96
2024/01/14 01:42:05;;;;;;;11.02;5.53;;;;;;;-0.40;100.00;97739.03;2544272;29;20073;-95
2024/01/14 01:43:21;;;;;;;8.32;5.40;;;;;;;-0.50;100.00;97742.41;2522012;29;20097;-95
2024/01/14 01:44:38;;;;;;;11.30;6.53;;;;;;;-0.53;100.00;97740.72;2526923;29;20044;-96
2024/01/14 01:45:56;;;;;;;5.57;3.55;;;;;;;-0.20;100.00;97744.28;2516335;29;20057;-96
2024/01/14 01:47:16;;;;;;;5.32;3.20;;;;;;;-0.20;100.00;97733.97;2518840;29;20104;-96
2024/01/14 01:48:33;;;;;;;12.00;5.65;;;;;;;-0.47;100.00;97733.00;2517063;29;20045;-95
2024/01/14 01:49:49;;;;;;;9.80;6.60;;;;;;;-0.51;100.00;97726.16;2529293;29;20048;-96
2024/01/14 01:51:12;;;;;;;12.43;7.88;;;;;;;-0.60;100.00;97736.38;2529755;29;20047;-95
2024/01/14 01:52:29;;;;;;;9.07;5.35;;;;;;;-0.51;100.00;97736.44;2533761;29;20044;-95
2024/01/14 01:53:51;;;;;;;13.13;7.78;;;;;;;-0.68;100.00;97730.34;2536405;29;20044;-95
2024/01/14 01:55:08;;;;;;;11.40;6.53;;;;;;;-0.46;100.00;97723.59;2527499;29;20048;-94
2024/01/14 01:56:27;;;;;;;12.13;6.35;;;;;;;-0.63;100.00;97723.50;2524088;29;20061;-96
2024/01/14 01:57:54;;;;;;;7.88;4.65;;;;;;;-0.50;100.00;97716.69;2521338;29;20049;-96
2024/01/14 01:59:12;;;;;;;11.80;7.63;;;;;;;-0.67;100.00;97720.06;2526594;29;20033;-94
2024/01/14 02:00:34;;;;;;;13.32;7.90;;;;;;;-0.68;100.00;97728.63;2523483;29;20085;-96
2024/01/14 02:01:51;;;;;;;9.52;5.90;;;;;;;-0.50;100.00;97732.13;2518371;29;20083;-95
2024/01/14 02:03:09;;;;;;;10.50;6.28;;;;;;;-0.44;100.00;97721.88;2523552;29;20375;-94
2024/01/14 02:04:27;;;;;;;12.77;6.88;;;;;;;-0.62;100.00;97727.78;2534586;29;20037;-96
2024/01/14 02:05:45;;;;;;;9.05;5.97;;;;;;;-0.60;100.00;97718.38;2538296;29;20100;-94
2024/01/14 02:07:01;;;;;;;10.40;6.53;;;;;;;-0.54;100.00;97726.13;2520704;29;20045;-95
2024/01/14 02:08:18;;;;;;;16.15;9.00;;;;;;;-0.73;100.00;97717.47;2536218;29;20072;-96
2024/01/14 02:09:35;;;;;;;14.25;8.02;;;;;;;-0.65;100.00;97714.94;2537488;29;20052;-95
2024/01/14 02:10:52;;;;;;;14.57;8.25;;;;;;;-0.67;100.00;97727.75;2529835;29;20044;-95
2024/01/14 02:12:11;;;;;;;13.00;7.90;;;;;;;-0.64;100.00;97726.94;2524872;29;20086;-95
2024/01/14 02:13:32;;;;;;;9.13;5.40;;;;;;;-0.55;100.00;97721.84;2540383;29;20112;-95
2024/01/14 02:14:57;;;;;;;13.30;7.00;;;;;;;-0.53;100.00;97714.13;2538837;29;20027;-96
2024/01/14 02:17:39;;;;;;;10.98;4.60;;;;;;;-0.51;100.00;97713.28;2541310;29;20457;-94
2024/01/14 02:19:00;;;;;;;14.75;6.18;;;;;;;-0.61;100.00;97716.66;2549992;29;20052;-96
2024/01/14 02:20:16;;;;;;;14.52;6.80;;;;;;;-0.58;100.00;97714.97;2535955;29;20097;-95
2024/01/14 02:21:39;;;;;;;10.73;6.43;;;;;;;-0.51;100.00;97709.84;2548629;29;20039;-93
2024/01/14 02:22:58;;;;;;;12.90;8.13;;;;;;;-0.55;100.00;97706.41;2551332;29;20508;-96
2024/01/14 02:24:27;;;;;;;11.07;4.53;;;;;;;-0.32;100.00;97709.09;2538259;29;20104;-95
2024/01/14 02:25:45;;;;;;;9.95;5.30;;;;;;;-0.34;100.00;97712.50;2545466;29;20055;-95
2024/01/14 02:27:26;;;;;;;14.88;6.95;;;;;;;-0.48;100.00;97705.56;2547903;29;20048;-96
2024/01/14 02:28:43;;;;;;;12.05;6.03;;;;;;;-0.51;100.00;97697.84;2548227;29;20055;-95
2024/01/14 02:30:00;;;;;;;13.63;8.73;;;;;;;-0.61;100.00;97703.81;2555093;29;20043;-95
2024/01/14 02:31:17;;;;;;;13.48;6.45;;;;;;;-0.47;100.00;97709.88;2551255;29;20087;-95
2024/01/14 02:32:37;;;;;;;12.55;7.07;;;;;;;-0.49;100.00;97716.72;2535347;29;20041;-96
2024/01/14 02:33:55;;;;;;;13.18;7.20;;;;;;;-0.55;100.00;97708.13;2544425;29;20080;-95
2024/01/14 02:56:37;;;;;;;14.00;7.28;;;;;;;-0.48;100.00;97682.44;2555335;28;20044;-96
2024/01/14 02:57:57;;;;;;;12.90;7.50;;;;;;;-0.53;100.00;97681.56;2548620;29;20080;-96
2024/01/14 02:59:18;;;;;;;14.38;9.13;;;;;;;-0.73;100.00;97679.75;2548191;29;20032;-96
2024/01/14 03:00:40;;;;;;;11.23;6.22;;;;;;;-0.48;100.00;97673.88;2544712;29;20063;-96
2024/01/14 03:09:11;;;;;;;11.07;6.57;;;;;;;-0.47;100.00;97670.44;2774633;23;20067;-95
2024/01/14 03:10:28;;;;;;;11.82;5.70;;;;;;;-0.43;100.00;97670.44;2542255;29;20409;-96
2024/01/14 03:11:47;;;;;;;7.00;3.85;;;;;;;-0.30;100.00;97665.34;2540413;29;20119;-96
2024/01/14 03:13:04;;;;;;;13.15;7.53;;;;;;;-0.57;100.00;97666.97;2537218;29;20536;-96
2024/01/14 03:14:32;;;;;;;12.05;8.60;;;;;;;-0.53;100.00;97666.13;2539864;29;20036;-96
2024/01/14 03:15:49;;;;;;;8.00;4.70;;;;;;;-0.40;100.00;97669.59;2538028;29;20049;-96
2024/01/14 03:17:06;;;;;;;8.75;5.43;;;;;;;-0.35;100.00;97667.06;2530144;29;20037;-95
2024/01/14 03:18:25;;;;;;;14.52;8.93;;;;;;;-0.52;100.00;97677.25;2551532;29;20058;-96
2024/01/14 03:19:43;;;;;;;10.05;5.50;;;;;;;-0.51;100.00;97664.44;2547072;29;20075;-96
2024/01/14 03:21:17;;;;;;;9.77;4.57;;;;;;;-0.40;100.00;97655.91;2530060;29;20049;-96
2024/01/14 03:22:34;;;;;;;12.07;6.13;;;;;;;-0.35;100.00;97664.47;2522590;29;20063;-96
2024/01/14 03:23:51;;;;;;;5.93;4.00;;;;;;;-0.22;100.00;97670.50;2544886;29;20040;-96
2024/01/14 03:25:08;;;;;;;7.57;3.78;;;;;;;-0.12;100.00;97661.97;2554466;29;20039;-95
2024/01/14 03:26:46;;;;;;;8.30;4.45;;;;;;;-0.22;100.00;97666.22;2551084;29;20046;-96
2024/01/14 03:28:27;;;;;;;5.82;2.78;;;;;;;-0.03;100.00;97662.00;2561332;29;20039;-96
2024/01/14 03:29:45;;;;;;;5.38;2.88;;;;;;;0.00;100.00;97656.00;2551770;29;20061;-95
2024/01/14 03:31:03;;;;;;;7.97;4.78;;;;;;;-0.22;100.00;97667.94;2535007;29;20495;-95
2024/01/14 03:32:24;;;;;;;8.57;4.93;;;;;;;-0.07;100.00;97664.53;2549938;29;20051;-96
2024/01/14 03:33:45;;;;;;;10.32;6.25;;;;;;;-0.20;100.00;97661.94;2550247;29;20040;-96
2024/01/14 03:35:04;;;;;;;12.82;7.28;;;;;;;-0.33;100.00;97663.63;2546630;29;20044;-96
2024/01/14 03:36:21;;;;;;;13.25;7.00;;;;;;;-0.25;100.00;97658.50;2538970;29;20145;-95
2024/01/14 03:37:39;;;;;;;6.03;3.63;;;;;;;-0.31;100.00;97661.06;2543527;29;20050;-96
2024/01/14 03:38:55;;;;;;;9.77;5.07;;;;;;;-0.16;100.00;97661.09;2536679;29;20145;-94
2024/01/14 03:40:12;;;;;;;13.25;6.72;;;;;;;-0.35;100.00;97660.22;2531644;29;20048;-96
2024/01/14 03:41:30;;;;;;;8.05;4.28;;;;;;;-0.22;100.00;97658.50;2539355;29;20601;-95
2024/01/14 03:42:47;;;;;;;8.60;5.80;;;;;;;-0.17;100.00;97659.38;2540232;29;20105;-96
2024/01/14 03:44:06;;;;;;;12.13;5.32;;;;;;;-0.31;100.00;97649.06;2532000;29;20436;-95
2024/01/14 03:45:22;;;;;;;7.70;4.85;;;;;;;-0.21;100.00;97656.78;2539452;29;20107;-95
2024/01/14 03:46:40;;;;;;;8.63;4.32;;;;;;;-0.16;100.00;97645.66;2534601;29;20032;-96
2024/01/14 03:47:56;;;;;;;12.35;7.38;;;;;;;-0.41;100.00;97643.91;2540439;29;20039;-96
2024/01/14 03:49:12;;;;;;;11.15;6.38;;;;;;;-0.36;100.00;97637.03;2539273;29;20092;-95
2024/01/14 03:50:29;;;;;;;12.27;4.72;;;;;;;-0.18;100.00;97641.38;2537769;29;20071;-96
2024/01/14 03:51:48;;;;;;;5.43;2.65;;;;;;;0.02;100.00;97640.53;2522350;29;20448;-95
2024/01/14 03:53:04;;;;;;;9.98;5.50;;;;;;;-0.24;100.00;97636.19;2524042;29;20111;-95
2024/01/14 03:54:20;;;;;;;10.82;6.22;;;;;;;-0.44;100.00;97624.16;2537347;29;20081;-96
2024/01/14 03:55:36;;;;;;;10.02;5.25;;;;;;;-0.16;100.00;97625.06;2534178;29;20146;-95
2024/01/14 03:56:54;;;;;;;11.43;5.75;;;;;;;-0.21;100.00;97624.22;2537383;29;20048;-94
2024/01/14 03:58:13;;;;;;;9.68;5.75;;;;;;;-0.25;100.00;97616.47;2549972;29;20040;-95
2024/01/14 03:59:29;;;;;;;13.38;7.72;;;;;;;-0.43;100.00;97616.44;2545276;29;20670;-96
2024/01/14 04:00:45;;;;;;;11.95;6.47;;;;;;;-0.41;100.00;97611.31;2535898;29;20044;-96
2024/01/14 04:02:04;;;;;;;14.25;7.10;;;;;;;-0.34;100.00;97610.47;2518564;29;20334;-96
2024/01/14 04:03:27;;;;;;;5.90;3.28;;;;;;;-0.27;100.00;97621.66;2545731;29;20055;-96
2024/01/14 04:04:47;;;;;;;14.00;7.78;;;;;;;-0.36;100.00;97621.59;2530781;29;20049;-96
2024/01/14 04:06:08;;;;;;;11.30;7.07;;;;;;;-0.39;100.00;97617.31;2530111;29;20210;-96
2024/01/14 04:07:26;;;;;;;10.10;5.70;;;;;;;-0.25;100.00;97625.06;2530576;29;20045;-96
2024/01/14 04:08:50;;;;;;;11.90;6.40;;;;;;;-0.31;100.00;97618.19;2525070;29;20048;-96
2024/01/14 04:10:28;;;;;;;6.00;3.33;;;;;;;-0.32;100.00;97629.34;2550341;29;20051;-96
2024/01/14 04:11:46;;;;;;;14.98;7.95;;;;;;;-0.49;100.00;97611.28;2554031;29;20068;-96
2024/01/14 04:23:54;;;;;;;6.30;3.28;;;;;;;-0.24;100.00;97597.63;3140548;22;2099302;-96
2024/01/14 04:25:12;;;;;;;8.95;5.38;;;;;;;-0.21;100.00;97598.47;3217233;23;20438;-96
2024/01/14 04:26:36;;;;;;;6.40;3.40;;;;;;;-0.18;100.00;97611.34;3209002;23;20016;-96
2024/01/14 04:27:53;;;;;;;9.85;5.00;;;;;;;-0.11;100.00;97617.38;3207739;23;20480;-96
2024/01/14 04:29:17;;;;;;;14.32;6.72;;;;;;;-0.38;100.00;97619.03;3212040;23;20011;-96
2024/01/14 04:30:35;;;;;;;13.18;7.28;;;;;;;-0.47;100.00;97606.16;3203242;23;20009;-96
2024/01/14 04:31:56;;;;;;;15.57;7.78;;;;;;;-0.47;100.00;97619.84;3216845;23;20054;-96
2024/01/14 04:33:16;;;;;;;19.52;8.70;;;;;;;-0.61;100.00;97606.09;3216564;23;20008;-96
2024/01/14 04:34:33;;;;;;;15.10;8.63;;;;;;;-0.54;100.00;97606.97;3195896;23;20048;-96
2024/01/14 04:35:54;;;;;;;13.85;5.90;;;;;;;-0.41;100.00;97613.88;3204799;23;20012;-96
2024/01/14 04:37:16;;;;;;;9.07;5.30;;;;;;;-0.48;100.00;97597.56;3197754;23;20083;-96
2024/01/14 04:38:36;;;;;;;16.35;7.63;;;;;;;-0.43;100.00;97593.28;3220796;23;20011;-96
2024/01/14 04:39:55;;;;;;;9.88;5.43;;;;;;;-0.29;100.00;97592.47;3191266;23;20072;-96
2024/01/14 04:41:13;;;;;;;8.55;3.60;;;;;;;-0.17;100.00;97595.06;3196381;23;20258;-96
2024/01/14 04:42:29;;;;;;;9.82;5.13;;;;;;;-0.38;100.00;97592.47;3181552;23;20017;-95
2024/01/14 04:43:51;;;;;;;12.10;5.65;;;;;;;-0.44;100.00;97589.00;3179173;23;20020;-94
2024/01/14 04:47:59;;;;;;;12.05;5.55;;;;;;;-0.34;100.00;97581.31;3251909;22;20031;-93
2024/01/14 04:49:16;;;;;;;8.57;5.32;;;;;;;-0.46;100.00;97583.00;3237156;23;20016;-94
2024/01/14 04:50:35;;;;;;;10.65;5.60;;;;;;;-0.37;100.00;97579.59;3227393;23;20012;-96
2024/01/14 04:51:52;;;;;;;13.30;7.57;;;;;;;-0.50;100.00;97580.41;3227009;23;20046;-95
2024/01/14 04:53:09;;;;;;;16.15;8.98;;;;;;;-0.66;100.00;97579.53;3211871;23;20066;-95
2024/01/14 04:54:25;;;;;;;14.57;7.95;;;;;;;-0.62;100.00;97578.69;3204013;23;20016;-95
2024/01/14 04:55:45;;;;;;;11.23;5.63;;;;;;;-0.51;100.00;97591.56;3204875;23;20008;-95
2024/01/14 04:57:02;;;;;;;12.30;7.13;;;;;;;-0.65;100.00;97583.81;3198122;23;20009;-96
2024/01/14 04:58:19;;;;;;;12.82;6.88;;;;;;;-0.63;100.00;97584.69;3212801;23;20016;-95
2024/01/14 04:59:36;;;;;;;7.82;4.68;;;;;;;-0.58;100.00;97582.97;3211969;23;20039;-94
2024/01/14 05:00:52;;;;;;;9.85;5.40;;;;;;;-0.51;100.00;97587.28;3194722;23;20009;-94
2024/01/14 05:02:09;;;;;;;13.60;5.35;;;;;;;-0.60;100.00;97576.97;3201038;23;20004;-95
2024/01/14 05:03:25;;;;;;;14.20;6.45;;;;;;;-0.71;100.00;97577.78;3203527;23;20440;-96
2024/01/14 05:04:41;;;;;;;14.95;6.50;;;;;;;-0.60;100.00;97575.28;3194935;23;20425;-95
2024/01/14 05:05:57;;;;;;;14.50;6.43;;;;;;;-0.68;100.00;97576.94;3210191;23;20017;-95
2024/01/14 05:07:14;;;;;;;5.70;3.53;;;;;;;-0.55;100.00;97580.44;3194232;23;20005;-95
2024/01/14 05:08:30;;;;;;;9.52;4.30;;;;;;;-0.51;100.00;97576.13;3184920;23;20012;-95
2024/01/14 05:09:47;;;;;;;11.60;5.82;;;;;;;-0.66;100.00;97569.25;3184726;23;20009;-96
2024/01/14 05:11:04;;;;;;;13.50;7.80;;;;;;;-0.79;100.00;97564.06;3201154;23;20012;-95
2024/01/14 05:12:20;;;;;;;13.63;7.53;;;;;;;-0.69;100.00;97567.53;3179101;23;20044;-95
2024/01/14 05:13:38;;;;;;;7.05;4.43;;;;;;;-0.57;100.00;97576.97;3185060;23;20021;-95
2024/01/14 05:14:54;;;;;;;8.43;4.50;;;;;;;-0.54;100.00;97570.97;3179620;23;20031;-95
2024/01/14 05:16:11;;;;;;;11.32;5.15;;;;;;;-0.49;100.00;97565.00;3200137;23;20008;-94
2024/01/14 05:17:27;;;;;;;10.02;5.28;;;;;;;-0.57;100.00;97564.13;3209872;23;20008;-95
2024/01/14 05:18:44;;;;;;;12.13;7.30;;;;;;;-0.68;100.00;97566.66;3210130;23;20046;-96
2024/01/14 05:20:00;;;;;;;8.38;4.07;;;;;;;-0.61;100.00;97563.28;3208623;23;20012;-95
2024/01/14 05:21:17;;;;;;;8.75;4.43;;;;;;;-0.46;100.00;97559.03;3192869;23;20009;-94
2024/01/14 05:22:33;;;;;;;13.50;7.28;;;;;;;-0.56;100.00;97568.41;3214838;23;20038;-95
2024/01/14 05:23:49;;;;;;;9.20;4.60;;;;;;;-0.54;100.00;97576.13;3202298;23;20021;-96
2024/01/14 05:25:06;;;;;;;15.85;7.07;;;;;;;-0.60;100.00;97572.69;3189886;23;20076;-94
2024/01/14 05:26:24;;;;;;;9.48;5.07;;;;;;;-0.43;100.00;97569.31;3198234;23;20408;-95
2024/01/14 05:27:40;;;;;;;13.48;5.95;;;;;;;-0.51;100.00;97576.13;3205896;23;20078;-96
2024/01/14 05:29:09;;;;;;;9.82;5.20;;;;;;;-0.43;100.00;97570.16;3190237;23;20080;-95
2024/01/14 05:30:26;;;;;;;10.25;5.47;;;;;;;-0.44;100.00;97563.28;3186033;23;20005;-96
2024/01/14 05:31:42;;;;;;;11.77;6.07;;;;;;;-0.44;100.00;97572.72;3190849;23;20009;-96
2024/01/14 05:32:59;;;;;;;7.47;3.97;;;;;;;-0.27;100.00;97577.91;3195857;23;20005;-94
2024/01/14 05:34:15;;;;;;;10.73;5.95;;;;;;;-0.47;100.00;97576.16;3205587;23;20008;-95
2024/01/14 05:35:31;;;;;;;14.00;7.05;;;;;;;-0.48;100.00;97566.72;3189577;23;20021;-95
2024/01/14 05:36:48;;;;;;;12.82;7.25;;;;;;;-0.51;100.00;97556.44;3182956;23;20787;-94
2024/01/14 05:38:05;;;;;;;17.38;7.95;;;;;;;-0.42;100.00;97565.88;3197669;23;20024;-96
2024/01/14 05:39:23;;;;;;;14.85;6.88;;;;;;;-0.42;100.00;97568.44;3208374;23;20051;-96
2024/01/14 05:40:40;;;;;;;10.18;5.43;;;;;;;-0.23;100.00;97571.91;3204390;23;20017;-95
2024/01/14 05:41:59;;;;;;;10.80;5.72;;;;;;;-0.23;100.00;97574.47;3210731;23;20017;-96
2024/01/14 05:43:19;;;;;;;9.60;5.22;;;;;;;-0.35;100.00;97577.03;3207036;23;20074;-95
2024/01/14 05:44:36;;;;;;;11.52;5.05;;;;;;;-0.15;100.00;97570.19;3206711;23;19997;-96
2024/01/14 05:45:52;;;;;;;10.18;5.15;;;;;;;-0.32;100.00;97566.75;3206544;23;20012;-94
2024/01/14 05:47:10;;;;;;;10.02;4.68;;;;;;;-0.17;100.00;97573.63;3211862;23;20020;-95
2024/01/14 05:48:26;;;;;;;8.07;4.38;;;;;;;-0.25;100.00;97576.19;3206443;23;20120;-94
2024/01/14 05:49:42;;;;;;;13.15;6.03;;;;;;;-0.29;100.00;97577.03;3197711;23;20013;-93
2024/01/14 05:50:58;;;;;;;9.60;5.18;;;;;;;-0.27;100.00;97574.47;3205550;23;20068;-95
2024/01/14 05:52:15;;;;;;;12.73;6.03;;;;;;;-0.04;100.00;97583.06;3197591;23;20106;-95
2024/01/14 05:53:31;;;;;;;7.25;3.90;;;;;;;-0.15;100.00;97570.19;3196536;23;20075;-95
2024/01/14 05:54:47;;;;;;;5.35;3.20;;;;;;;-0.19;100.00;97575.34;3212107;23;20012;-95
2024/01/14 05:56:05;;;;;;;17.75;7.85;;;;;;;-0.35;100.00;97561.59;3205377;23;20087;-96
2024/01/14 05:57:22;;;;;;;13.88;7.45;;;;;;;-0.31;100.00;97563.31;3196955;23;20111;-96
2024/01/14 05:58:41;;;;;;;15.13;8.35;;;;;;;-0.43;100.00;97565.00;3196811;23;20012;-96
2024/01/14 06:00:00;;;;;;;7.78;3.28;;;;;;;-0.16;100.00;97562.47;3215820;23;20062;-95
2024/01/14 06:01:16;;;;;;;7.45;4.97;;;;;;;-0.13;100.00;97562.47;3207438;23;20008;-95
2024/01/14 06:02:32;;;;;;;11.25;5.28;;;;;;;-0.05;100.00;97565.03;3206019;23;20364;-95
2024/01/14 06:03:49;;;;;;;13.25;5.55;;;;;;;-0.25;100.00;97565.03;3197470;23;20071;-95
2024/01/14 06:05:05;;;;;;;9.73;4.95;;;;;;;-0.06;100.00;97563.34;3212798;23;20016;-96
2024/01/14 06:06:23;;;;;;;10.25;5.88;;;;;;;-0.18;100.00;97570.19;3205251;23;20005;-96
2024/01/14 06:07:39;;;;;;;9.45;5.22;;;;;;;-0.16;100.00;97562.47;3213469;23;20012;-96
2024/01/14 06:08:56;;;;;;;12.57;5.32;;;;;;;-0.01;100.00;97572.78;3222915;23;20008;-94
2024/01/14 06:10:18;;;;;;;14.07;6.60;;;;;;;-0.27;100.00;97567.63;3226425;23;20004;-95
2024/01/14 06:11:35;;;;;;;10.65;5.38;;;;;;;-0.06;100.00;97573.63;3207466;23;20012;-95
2024/01/14 06:12:52;;;;;;;8.32;5.18;;;;;;;-0.02;100.00;97572.75;3200298;23;20055;-95
2024/01/14 06:14:10;;;;;;;20.00;9.52;;;;;;;-0.33;100.00;97568.47;3198237;23;20012;-96
2024/01/14 06:15:26;;;;;;;16.30;7.97;;;;;;;-0.31;100.00;97564.19;3200529;23;20088;-95
2024/01/14 06:16:42;;;;;;;10.25;6.25;;;;;;;-0.21;100.00;97567.63;3197443;23;20130;-94
2024/01/14 06:18:00;;;;;;;15.55;7.70;;;;;;;-0.25;100.00;97559.88;3199637;23;20047;-96
2024/01/14 06:19:16;;;;;;;8.10;3.88;;;;;;;0.10;100.00;97566.78;3208542;23;20013;-95
2024/01/14 06:20:38;;;;;;;17.50;9.82;;;;;;;-0.21;100.00;97569.31;3200990;23;19999;-94
2024/01/14 06:21:55;;;;;;;14.52;6.60;;;;;;;-0.13;100.00;97571.94;3207414;23;20130;-96
2024/01/14 06:23:11;;;;;;;8.35;3.60;;;;;;;0.10;100.00;97571.94;3196825;23;20009;-95
2024/01/14 06:24:27;;;;;;;8.07;3.92;;;;;;;0.19;100.00;97581.34;3228891;22;20056;-95
2024/01/14 06:25:44;;;;;;;11.23;5.72;;;;;;;0.05;100.00;97568.47;3216292;23;20357;-94
2024/01/14 06:27:03;;;;;;;13.00;6.70;;;;;;;-0.01;100.00;97577.91;3213945;23;20016;-96
2024/01/14 06:28:21;;;;;;;15.00;5.97;;;;;;;-0.02;100.00;97577.91;3209773;23;20008;-95
2024/01/14 06:29:40;;;;;;;17.50;7.47;;;;;;;-0.13;100.00;97570.19;3222093;23;20050;-94
2024/01/14 06:30:56;;;;;;;8.65;4.82;;;;;;;0.05;100.00;97565.91;3213388;23;20058;-95
2024/01/14 06:32:12;;;;;;;10.07;3.95;;;;;;;0.12;100.00;97568.47;3227212;22;20008;-94
2024/01/14 06:33:30;;;;;;;13.77;5.55;;;;;;;-0.03;100.00;97574.50;3216086;23;20008;-96
2024/01/14 06:34:47;;;;;;;12.43;5.00;;;;;;;0.03;100.00;97578.78;3211490;23;20055;-94
2024/01/14 06:36:05;;;;;;;12.23;6.50;;;;;;;0.10;100.00;97572.75;3222138;23;20004;-95
2024/01/14 06:37:22;;;;;;;9.30;4.28;;;;;;;0.13;100.00;97567.59;3206220;23;20013;-96
2024/01/14 06:38:44;;;;;;;11.55;5.32;;;;;;;0.18;100.00;97569.34;3207740;23;20020;-95
2024/01/14 06:40:01;;;;;;;13.13;7.28;;;;;;;-0.09;100.00;97568.47;3214844;23;20008;-96
2024/01/14 06:41:19;;;;;;;9.15;5.05;;;;;;;0.05;100.00;97569.34;3206063;23;20005;-94
2024/01/14 06:42:36;;;;;;;14.93;6.70;;;;;;;-0.02;100.00;97560.78;3208749;23;20112;-96
2024/01/14 06:43:52;;;;;;;8.90;3.67;;;;;;;0.21;100.00;97557.34;3210634;23;20035;-96
2024/01/14 06:45:11;;;;;;;12.15;6.32;;;;;;;0.08;100.00;97563.34;3205386;23;20016;-93
2024/01/14 06:46:28;;;;;;;12.45;6.15;;;;;;;0.18;100.00;97559.88;3197450;23;20025;-95
2024/01/14 06:47:45;;;;;;;9.80;4.75;;;;;;;0.38;100.00;97562.44;3193216;23;20028;-94
2024/01/14 06:49:05;;;;;;;16.65;6.05;;;;;;;0.10;100.00;97571.94;3193208;23;20068;-95
2024/01/14 06:50:21;;;;;;;23.27;8.88;;;;;;;-0.07;100.00;97565.06;3202842;23;20025;-95
2024/01/14 06:51:45;;;;;;;24.48;7.88;;;;;;;0.09;100.00;97565.06;3191246;23;20004;-94